createdAt,value
2023-02-16T00:01:22.625Z,101229.88
2023-02-16T00:03:53.204Z,101231.52
2023-02-16T00:06:22.280Z,101235.05
2023-02-16T00:08:53.097Z,101231.03
2023-02-16T00:11:54.716Z,101226.29
2023-02-16T00:14:24.633Z,101218.05
2023-02-16T00:16:54.214Z,101209.79
2023-02-16T00:19:31.499Z,101204.05
2023-02-16T00:22:01.218Z,101201.73
2023-02-16T00:24:30.924Z,101201.67
2023-02-16T00:27:00.911Z,101200.20
2023-02-16T00:29:35.309Z,101198.58
2023-02-16T00:32:06.426Z,101191.72
2023-02-16T00:34:40.747Z,101188.61
2023-02-16T00:37:14.324Z,101187.27
2023-02-16T00:39:44.343Z,101181.27
2023-02-16T00:42:22.081Z,101179.61
2023-02-16T00:44:56.906Z,101176.14
2023-02-16T00:47:37.529Z,101167.70
2023-02-16T00:50:28.196Z,101164.02
2023-02-16T00:52:59.782Z,101155.62
2023-02-16T00:55:31.159Z,101151.67
2023-02-16T00:58:12.484Z,101148.77
2023-02-16T01:00:44.915Z,101147.85
2023-02-16T01:03:20.814Z,101144.36
2023-02-16T01:05:49.565Z,101142.94
2023-02-16T01:08:36.623Z,101139.95
2023-02-16T01:11:10.276Z,101134.56
2023-02-16T01:13:47.946Z,101132.77
2023-02-16T01:16:25.953Z,101133.33
2023-02-16T01:18:54.895Z,101130.46
2023-02-16T01:21:23.154Z,101126.01
2023-02-16T01:23:52.175Z,101123.89
2023-02-16T01:26:21.764Z,101124.17
2023-02-16T01:28:50.278Z,101128.20
2023-02-16T01:31:18.842Z,101124.20
2023-02-16T01:33:47.201Z,101128.26
2023-02-16T01:36:29.976Z,101129.29
2023-02-16T01:38:58.297Z,101131.52
2023-02-16T01:41:48.269Z,101130.06
2023-02-16T01:44:22.808Z,101120.96
2023-02-16T01:46:57.263Z,101122.23
2023-02-16T01:49:25.951Z,101123.36
2023-02-16T01:52:02.422Z,101123.33
2023-02-16T01:54:57.842Z,101124.30
2023-02-16T01:57:37.784Z,101117.42
2023-02-16T02:00:29.679Z,101113.88
2023-02-16T02:03:21.643Z,101107.59
2023-02-16T02:05:52.182Z,101106.73
2023-02-16T02:08:37.303Z,101106.02
2023-02-16T02:11:24.376Z,101102.45
2023-02-16T02:14:04.202Z,101099.53
2023-02-16T02:16:32.919Z,101099.14
2023-02-16T02:19:01.900Z,101099.15
2023-02-16T02:22:09.151Z,101092.70
2023-02-16T02:24:52.797Z,101085.54
2023-02-16T02:27:23.414Z,101081.42
2023-02-16T02:29:58.738Z,101079.00
2023-02-16T02:36:33.846Z,101072.63
2023-02-16T02:39:22.132Z,101074.55
2023-02-16T02:42:07.181Z,101076.58
2023-02-16T02:44:46.521Z,101076.20
2023-02-16T02:47:15.288Z,101075.42
2023-02-16T02:49:52.508Z,101074.67
2023-02-16T02:52:22.939Z,101074.13
2023-02-16T02:55:27.105Z,101074.89
2023-02-16T02:58:14.519Z,101069.44
2023-02-16T03:00:47.352Z,101059.92
2023-02-16T03:03:19.112Z,101056.84
2023-02-16T03:06:01.616Z,101052.99
2023-02-16T03:08:34.615Z,101047.11
2023-02-16T03:11:30.791Z,101045.63
2023-02-16T03:14:07.463Z,101038.73
2023-02-16T03:16:40.924Z,101034.36
2023-02-16T03:19:31.970Z,101033.38
2023-02-16T03:22:20.654Z,101027.19
2023-02-16T03:25:07.974Z,101029.32
2023-02-16T03:28:01.768Z,101023.11
2023-02-16T03:30:30.902Z,101023.48
2023-02-16T03:32:59.629Z,101027.48
2023-02-16T03:35:29.192Z,101029.21
2023-02-16T03:37:57.898Z,101027.20
2023-02-16T03:40:28.731Z,101022.64
2023-02-16T03:43:03.327Z,101014.45
2023-02-16T03:45:35.301Z,101011.84
2023-02-16T03:48:04.224Z,101006.20
2023-02-16T03:50:33.188Z,101005.34
2023-02-16T03:53:07.688Z,101003.92
2023-02-16T03:55:47.678Z,100999.85
2023-02-16T03:58:20.279Z,100991.58
2023-02-16T04:05:21.755Z,100987.84
2023-02-16T04:07:50.169Z,100984.64
2023-02-16T04:10:19.228Z,100980.52
2023-02-16T04:12:47.564Z,100977.45
2023-02-16T04:15:22.742Z,100975.97
2023-02-16T04:17:51.280Z,100967.78
2023-02-16T04:20:23.447Z,100970.52
2023-02-16T04:22:51.888Z,100973.16
2023-02-16T04:25:20.770Z,100970.91
2023-02-16T04:27:49.613Z,100976.23
2023-02-16T04:34:38.526Z,100972.70
2023-02-16T04:37:06.672Z,100980.40
2023-02-16T04:39:35.349Z,100980.13
2023-02-16T04:42:04.151Z,100976.90
2023-02-16T04:44:33.009Z,100979.23
2023-02-16T04:47:01.075Z,100976.15
2023-02-16T04:49:29.136Z,100970.80
2023-02-16T04:51:57.500Z,100971.05
2023-02-16T04:54:25.471Z,100969.70
2023-02-16T04:56:53.640Z,100968.94
2023-02-16T04:59:21.770Z,100967.02
2023-02-16T05:01:50.019Z,100966.15
2023-02-16T05:04:19.090Z,100968.55
2023-02-16T05:06:47.058Z,100973.05
2023-02-16T05:09:15.279Z,100971.33
2023-02-16T05:12:02.228Z,100974.77
2023-02-16T05:14:45.633Z,100967.86
2023-02-16T05:17:19.639Z,100968.52
2023-02-16T05:19:52.342Z,100970.02
2023-02-16T05:22:21.086Z,100960.96
2023-02-16T05:24:49.431Z,100960.73
2023-02-16T05:27:23.093Z,100957.61
2023-02-16T05:29:51.962Z,100959.09
2023-02-16T05:32:20.723Z,100960.41
2023-02-16T05:34:48.752Z,100959.68
2023-02-16T05:37:18.725Z,100958.24
2023-02-16T05:39:46.918Z,100955.41
2023-02-16T05:42:14.874Z,100959.33
2023-02-16T05:44:42.861Z,100953.95
2023-02-16T05:47:11.425Z,100953.52
2023-02-16T05:49:39.477Z,100951.47
2023-02-16T05:52:07.514Z,100951.52
2023-02-16T05:54:35.590Z,100948.52
2023-02-16T05:57:04.330Z,100950.91
2023-02-16T05:59:32.263Z,100948.71
2023-02-16T06:02:00.911Z,100943.70
2023-02-16T06:04:29.481Z,100942.52
2023-02-16T06:06:57.464Z,100950.09
2023-02-16T06:09:25.637Z,100947.02
2023-02-16T06:11:54.700Z,100949.81
2023-02-16T06:14:22.939Z,100947.50
2023-02-16T06:16:54.431Z,100950.16
2023-02-16T06:19:22.848Z,100951.65
2023-02-16T06:21:51.220Z,100950.04
2023-02-16T06:24:19.409Z,100946.86
2023-02-16T06:26:47.517Z,100948.41
2023-02-16T06:29:15.663Z,100942.75
2023-02-16T06:31:43.875Z,100941.71
2023-02-16T06:34:12.013Z,100940.75
2023-02-16T06:36:42.388Z,100938.79
2023-02-16T06:39:10.963Z,100939.04
2023-02-16T06:41:40.524Z,100932.27
2023-02-16T06:44:14.086Z,100933.10
2023-02-16T06:46:44.422Z,100931.91
2023-02-16T06:49:14.732Z,100926.79
2023-02-16T06:51:43.036Z,100926.78
2023-02-16T06:54:11.660Z,100926.22
2023-02-16T06:56:40.108Z,100921.63
2023-02-16T06:59:08.174Z,100926.29
2023-02-16T07:01:36.192Z,100927.55
2023-02-16T07:04:04.304Z,100924.54
2023-02-16T07:06:32.605Z,100924.65
2023-02-16T07:09:01.033Z,100922.35
2023-02-16T07:11:29.318Z,100921.84
2023-02-16T07:13:57.830Z,100921.48
2023-02-16T07:16:26.030Z,100921.16
2023-02-16T07:18:54.031Z,100914.09
2023-02-16T07:21:22.082Z,100915.27
2023-02-16T07:23:50.065Z,100911.77
2023-02-16T07:26:19.323Z,100914.50
2023-02-16T07:28:47.538Z,100915.96
2023-02-16T07:31:17.526Z,100913.00
2023-02-16T07:33:45.635Z,100911.56
2023-02-16T07:36:14.332Z,100914.20
2023-02-16T07:38:42.370Z,100907.98
2023-02-16T07:41:11.900Z,100907.83
2023-02-16T07:43:42.826Z,100902.17
2023-02-16T07:46:11.023Z,100906.84
2023-02-16T07:48:39.153Z,100910.78
2023-02-16T07:51:07.868Z,100912.83
2023-02-16T07:53:35.983Z,100905.13
2023-02-16T07:56:04.275Z,100905.45
2023-02-16T07:58:32.383Z,100901.61
2023-02-16T08:01:08.187Z,100898.97
2023-02-16T08:03:36.358Z,100890.03
2023-02-16T08:06:05.040Z,100888.86
2023-02-16T08:08:33.642Z,100888.91
2023-02-16T08:11:11.802Z,100884.32
2023-02-16T08:13:40.592Z,100879.94
2023-02-16T08:16:10.804Z,100878.07
2023-02-16T08:18:40.715Z,100871.88
2023-02-16T08:21:14.510Z,100869.21
2023-02-16T08:23:47.580Z,100870.52
2023-02-16T08:26:19.606Z,100872.29
2023-02-16T08:28:50.223Z,100876.61
2023-02-16T08:31:25.101Z,100881.23
2023-02-16T08:33:54.292Z,100880.46
2023-02-16T08:36:29.667Z,100881.33
2023-02-16T08:38:58.100Z,100876.49
2023-02-16T08:41:30.869Z,100879.61
2023-02-16T08:44:01.329Z,100873.66
2023-02-16T08:46:32.518Z,100879.04
2023-02-16T08:49:02.244Z,100884.73
2023-02-16T08:51:34.753Z,100882.62
2023-02-16T08:54:06.045Z,100876.23
2023-02-16T08:56:34.629Z,100880.46
2023-02-16T08:59:02.850Z,100884.31
2023-02-16T09:01:30.930Z,100885.80
2023-02-16T09:03:59.112Z,100888.74
2023-02-16T09:06:27.665Z,100884.09
2023-02-16T09:08:57.325Z,100884.46
2023-02-16T09:11:25.819Z,100878.30
2023-02-16T09:13:55.059Z,100875.54
2023-02-16T09:16:24.547Z,100872.50
2023-02-16T09:18:53.226Z,100871.49
2023-02-16T09:21:25.704Z,100875.48
2023-02-16T09:23:56.501Z,100874.63
2023-02-16T09:26:26.885Z,100879.14
2023-02-16T09:28:55.310Z,100874.86
2023-02-16T09:31:27.769Z,100875.12
2023-02-16T09:34:28.464Z,100870.25
2023-02-16T09:36:56.587Z,100872.42
2023-02-16T09:39:24.561Z,100869.86
2023-02-16T09:42:15.869Z,100868.20
2023-02-16T09:44:55.952Z,100866.42
2023-02-16T09:47:31.205Z,100861.79
2023-02-16T09:50:02.265Z,100868.91
2023-02-16T09:52:37.718Z,100863.95
2023-02-16T09:55:14.580Z,100865.55
2023-02-16T09:58:01.325Z,100868.45
2023-02-16T10:00:33.017Z,100873.02
2023-02-16T10:03:40.024Z,100869.67
2023-02-16T10:06:17.494Z,100868.11
2023-02-16T10:08:51.482Z,100867.14
2023-02-16T10:11:46.067Z,100860.00
2023-02-16T10:14:50.594Z,100864.44
2023-02-16T10:17:31.613Z,100860.11
2023-02-16T10:20:19.864Z,100848.96
2023-02-16T10:23:12.358Z,100843.17
2023-02-16T10:25:40.127Z,100843.80
2023-02-16T10:28:17.640Z,100843.46
2023-02-16T10:31:00.932Z,100843.55
2023-02-16T10:33:53.668Z,100841.49
2023-02-16T10:36:27.647Z,100834.74
2023-02-16T10:39:05.068Z,100837.08
2023-02-16T10:41:45.841Z,100832.77
2023-02-16T10:44:21.807Z,100824.58
2023-02-16T10:46:59.948Z,100817.40
2023-02-16T10:49:31.354Z,100812.52
2023-02-16T10:52:03.501Z,100807.56
2023-02-16T10:54:33.224Z,100804.21
2023-02-16T10:57:06.100Z,100803.92
2023-02-16T10:59:38.984Z,100806.15
2023-02-16T11:04:41.505Z,100801.60
2023-02-16T11:07:14.309Z,100803.73
2023-02-16T11:09:44.055Z,100797.95
2023-02-16T11:12:22.957Z,100797.38
2023-02-16T11:14:54.136Z,100799.16
2023-02-16T11:17:23.989Z,100798.02
2023-02-16T11:19:56.551Z,100797.96
2023-02-16T11:22:31.351Z,100795.31
2023-02-16T11:25:17.911Z,100795.45
2023-02-16T11:27:57.283Z,100794.27
2023-02-16T11:30:37.396Z,100789.48
2023-02-16T11:33:23.972Z,100785.94
2023-02-16T11:35:52.522Z,100784.58
2023-02-16T11:38:31.822Z,100783.25
2023-02-16T11:41:02.494Z,100787.00
2023-02-16T11:43:35.278Z,100788.17
2023-02-16T11:46:22.974Z,100786.67
2023-02-16T11:48:51.266Z,100778.77
2023-02-16T11:51:34.529Z,100778.82
2023-02-16T11:54:07.749Z,100779.22
2023-02-16T11:56:35.839Z,100771.48
2023-02-16T11:59:17.132Z,100768.45
2023-02-16T12:02:00.587Z,100770.46
2023-02-16T12:04:46.684Z,100770.89
2023-02-16T12:07:36.684Z,100769.89
2023-02-16T12:10:30.978Z,100771.07
2023-02-16T12:13:10.902Z,100771.91
2023-02-16T12:16:00.020Z,100770.60
2023-02-16T12:18:42.468Z,100769.83
2023-02-16T12:21:10.331Z,100769.20
2023-02-16T12:24:18.377Z,100762.34
2023-02-16T12:27:02.088Z,100761.06
2023-02-16T12:29:53.844Z,100760.84
2023-02-16T12:32:31.171Z,100762.15
2023-02-16T12:35:36.648Z,100759.23
2023-02-16T12:38:29.622Z,100749.41
2023-02-16T12:41:16.141Z,100748.64
2023-02-16T12:43:51.621Z,100751.95
2023-02-16T12:46:24.049Z,100751.58
2023-02-16T12:49:01.179Z,100751.59
2023-02-16T12:51:36.301Z,100751.25
2023-02-16T12:54:11.166Z,100743.89
2023-02-16T12:56:45.843Z,100746.47
2023-02-16T12:59:22.408Z,100746.41
2023-02-16T13:01:54.962Z,100748.61
2023-02-16T13:04:44.177Z,100744.55
2023-02-16T13:07:23.392Z,100742.66
2023-02-16T13:10:07.028Z,100738.91
2023-02-16T13:12:58.137Z,100738.64
2023-02-16T13:15:37.100Z,100734.73
2023-02-16T13:18:20.327Z,100732.80
2023-02-16T13:20:54.069Z,100737.19
2023-02-16T13:23:27.703Z,100739.27
2023-02-16T13:26:28.403Z,100739.07
2023-02-16T13:29:23.185Z,100735.60
2023-02-16T13:32:06.260Z,100732.98
2023-02-16T13:34:38.334Z,100737.19
2023-02-16T13:37:51.928Z,100736.14
2023-02-16T13:40:36.716Z,100731.30
2023-02-16T13:43:16.862Z,100729.55
2023-02-16T13:45:47.567Z,100728.58
2023-02-16T13:48:23.748Z,100728.02
2023-02-16T13:51:15.475Z,100725.38
2023-02-16T13:53:52.785Z,100726.33
2023-02-16T13:56:29.722Z,100725.10
2023-02-16T13:59:21.155Z,100727.60
2023-02-16T14:01:50.966Z,100721.94
2023-02-16T14:04:22.224Z,100725.96
2023-02-16T14:07:13.399Z,100724.67
2023-02-16T14:09:41.380Z,100722.17
2023-02-16T14:12:09.468Z,100720.75
2023-02-16T14:14:43.144Z,100722.08
2023-02-16T14:17:25.111Z,100721.77
2023-02-16T14:20:05.295Z,100723.97
2023-02-16T14:22:57.477Z,100721.48
2023-02-16T14:25:32.232Z,100724.17
2023-02-16T14:28:21.548Z,100723.45
2023-02-16T14:30:56.952Z,100720.96
2023-02-16T14:33:43.700Z,100721.01
2023-02-16T14:36:17.206Z,100725.39
2023-02-16T14:38:49.950Z,100722.07
2023-02-16T14:41:24.142Z,100725.27
2023-02-16T14:44:25.854Z,100729.46
2023-02-16T14:46:59.515Z,100730.91
2023-02-16T14:49:51.901Z,100729.45
2023-02-16T14:52:27.052Z,100728.10
2023-02-16T14:55:40.189Z,100726.61
2023-02-16T14:58:27.774Z,100721.45
2023-02-16T15:01:16.412Z,100727.34
2023-02-16T15:03:54.881Z,100722.67
2023-02-16T15:06:31.601Z,100718.56
2023-02-16T15:09:13.485Z,100724.73
2023-02-16T15:12:08.989Z,100726.95
2023-02-16T15:14:43.111Z,100726.06
2023-02-16T15:17:36.497Z,100723.81
2023-02-16T15:20:19.937Z,100723.25
2023-02-16T15:22:54.406Z,100728.09
2023-02-16T15:25:39.747Z,100725.33
2023-02-16T15:28:10.821Z,100724.62
2023-02-16T15:30:59.114Z,100726.36
2023-02-16T15:33:33.701Z,100728.04
2023-02-16T15:36:08.958Z,100725.23
2023-02-16T15:38:39.746Z,100723.33
2023-02-16T15:41:13.274Z,100721.41
2023-02-16T15:43:50.357Z,100719.85
2023-02-16T15:46:29.084Z,100719.33
2023-02-16T15:48:57.441Z,100717.73
2023-02-16T15:51:34.934Z,100720.62
2023-02-16T15:54:07.478Z,100722.77
2023-02-16T15:56:50.481Z,100717.70
2023-02-16T15:59:35.376Z,100717.58
2023-02-16T16:02:07.034Z,100715.58
2023-02-16T16:04:38.909Z,100718.38
2023-02-16T16:07:12.125Z,100716.64
2023-02-16T16:09:42.186Z,100712.06
2023-02-16T16:12:13.789Z,100712.11
2023-02-16T16:14:56.994Z,100715.61
2023-02-16T16:17:28.224Z,100714.98
2023-02-16T16:19:58.288Z,100714.65
2023-02-16T16:22:35.084Z,100714.30
2023-02-16T16:25:42.222Z,100723.88
2023-02-16T16:28:28.516Z,100721.84
2023-02-16T16:31:31.256Z,100715.20
2023-02-16T16:34:08.889Z,100706.69
2023-02-16T16:36:47.038Z,100707.61
2023-02-16T16:39:17.851Z,100710.52
2023-02-16T16:42:06.586Z,100710.38
2023-02-16T16:44:37.721Z,100713.36
2023-02-16T16:47:26.734Z,100707.48
2023-02-16T16:49:58.995Z,100706.42
2023-02-16T16:52:45.057Z,100708.30
2023-02-16T16:55:27.064Z,100706.11
2023-02-16T16:58:01.336Z,100701.56
2023-02-16T17:00:34.479Z,100700.11
2023-02-16T17:03:04.889Z,100696.59
2023-02-16T17:05:34.575Z,100697.06
2023-02-16T17:08:04.180Z,100702.90
2023-02-16T17:10:32.625Z,100699.37
2023-02-16T17:13:01.024Z,100696.52
2023-02-16T17:15:43.306Z,100698.93
2023-02-16T17:18:21.141Z,100689.79
2023-02-16T17:20:50.466Z,100692.19
2023-02-16T17:23:20.316Z,100694.86
2023-02-16T17:25:52.097Z,100693.81
2023-02-16T17:28:21.306Z,100693.63
2023-02-16T17:30:49.319Z,100692.61
2023-02-16T17:33:17.238Z,100693.63
2023-02-16T17:35:45.285Z,100691.01
2023-02-16T17:38:18.906Z,100686.88
2023-02-16T17:40:49.289Z,100692.52
2023-02-16T17:43:18.815Z,100692.39
2023-02-16T17:45:47.441Z,100691.23
2023-02-16T17:48:30.305Z,100690.73
2023-02-16T17:50:58.394Z,100688.05
2023-02-16T17:53:27.558Z,100689.52
2023-02-16T17:55:57.869Z,100685.70
2023-02-16T17:58:26.172Z,100686.25
2023-02-16T18:00:54.366Z,100682.79
2023-02-16T18:03:23.161Z,100685.38
2023-02-16T18:05:51.699Z,100682.72
2023-02-16T18:08:20.189Z,100683.73
2023-02-16T18:10:51.553Z,100681.56
2023-02-16T18:13:20.467Z,100682.47
2023-02-16T18:15:49.809Z,100686.54
2023-02-16T18:18:19.107Z,100683.51
2023-02-16T18:20:47.524Z,100684.20
2023-02-16T18:23:15.989Z,100683.48
2023-02-16T18:25:44.318Z,100678.86
2023-02-16T18:28:20.083Z,100676.96
2023-02-16T18:30:49.386Z,100674.96
2023-02-16T18:33:22.200Z,100674.12
2023-02-16T18:35:57.589Z,100673.60
2023-02-16T18:38:25.836Z,100675.55
2023-02-16T18:40:54.955Z,100671.89
2023-02-16T18:43:23.881Z,100673.23
2023-02-16T18:45:52.107Z,100676.31
2023-02-16T18:48:21.890Z,100675.88
2023-02-16T18:50:49.986Z,100673.48
2023-02-16T18:53:17.967Z,100680.74
2023-02-16T18:55:46.137Z,100675.19
2023-02-16T18:58:15.043Z,100677.70
2023-02-16T19:04:36.634Z,100676.17
2023-02-16T19:07:04.991Z,100677.73
2023-02-16T19:09:33.276Z,100676.21
2023-02-16T19:12:01.260Z,100677.79
2023-02-16T19:14:29.291Z,100674.20
2023-02-16T19:16:57.418Z,100672.42
2023-02-16T19:19:25.521Z,100673.71
2023-02-16T19:21:54.355Z,100677.96
2023-02-16T19:24:22.883Z,100678.20
2023-02-16T19:26:50.968Z,100677.41
2023-02-16T19:29:18.921Z,100669.71
2023-02-16T19:31:47.973Z,100672.44
2023-02-16T19:34:17.069Z,100673.36
2023-02-16T19:36:45.428Z,100666.60
2023-02-16T19:39:13.724Z,100668.44
2023-02-16T19:41:46.271Z,100665.34
2023-02-16T19:44:14.880Z,100669.89
2023-02-16T19:46:43.332Z,100665.80
2023-02-16T19:49:14.487Z,100666.91
2023-02-16T19:51:42.946Z,100665.91
2023-02-16T19:54:11.020Z,100662.11
2023-02-16T19:56:40.608Z,100658.40
2023-02-16T19:59:08.992Z,100664.88
2023-02-16T20:01:37.004Z,100661.48
2023-02-16T20:04:05.462Z,100666.38
2023-02-16T20:06:40.470Z,100668.29
2023-02-16T20:09:12.435Z,100671.63
2023-02-16T20:11:41.388Z,100667.08
2023-02-16T20:14:11.342Z,100671.27
2023-02-16T20:16:40.719Z,100670.86
2023-02-16T20:19:08.851Z,100669.91
2023-02-16T20:21:37.069Z,100666.59
2023-02-16T20:24:06.917Z,100664.45
2023-02-16T20:26:41.368Z,100662.86
2023-02-16T20:29:11.586Z,100662.01
2023-02-16T20:31:43.687Z,100661.48
2023-02-16T20:34:11.840Z,100661.67
2023-02-16T20:36:39.933Z,100662.52
2023-02-16T20:39:08.452Z,100660.20
2023-02-16T20:41:37.100Z,100661.06
2023-02-16T20:44:07.339Z,100665.55
2023-02-16T20:46:35.713Z,100669.48
2023-02-16T20:49:04.852Z,100669.27
2023-02-16T20:51:33.144Z,100669.98
2023-02-16T20:54:03.874Z,100668.01
2023-02-16T20:56:32.249Z,100668.98
2023-02-16T20:59:01.495Z,100667.84
2023-02-16T21:01:33.744Z,100666.28
2023-02-16T21:04:01.799Z,100662.64
2023-02-16T21:06:30.274Z,100660.36
2023-02-16T21:08:58.457Z,100656.59
2023-02-16T21:11:27.297Z,100655.25
2023-02-16T21:13:58.002Z,100652.02
2023-02-16T21:16:26.308Z,100656.98
2023-02-16T21:18:54.669Z,100651.29
2023-02-16T21:21:23.548Z,100656.82
2023-02-16T21:23:54.034Z,100658.92
2023-02-16T21:26:24.826Z,100658.61
2023-02-16T21:28:53.432Z,100654.17
2023-02-16T21:31:24.380Z,100658.39
2023-02-16T21:33:54.439Z,100656.50
2023-02-16T21:36:25.041Z,100652.71
2023-02-16T21:38:53.869Z,100652.38
2023-02-16T21:41:24.679Z,100649.05
2023-02-16T21:43:55.931Z,100648.35
2023-02-16T21:46:25.409Z,100646.20
2023-02-16T21:48:55.251Z,100642.48
2023-02-16T21:51:29.676Z,100642.84
2023-02-16T21:53:58.819Z,100642.86
2023-02-16T21:56:50.386Z,100643.30
2023-02-16T21:59:19.970Z,100639.96
2023-02-16T22:01:54.367Z,100639.59
2023-02-16T22:04:23.052Z,100633.02
2023-02-16T22:06:51.785Z,100637.78
2023-02-16T22:09:22.634Z,100636.91
2023-02-16T22:11:51.529Z,100636.09
2023-02-16T22:14:20.206Z,100632.83
2023-02-16T22:16:48.828Z,100632.52
2023-02-16T22:19:18.507Z,100634.67
2023-02-16T22:21:48.046Z,100640.40
2023-02-16T22:24:18.540Z,100635.59
2023-02-16T22:26:48.537Z,100636.27
2023-02-16T22:29:17.217Z,100636.98
2023-02-16T22:31:47.591Z,100635.67
2023-02-16T22:34:19.654Z,100634.02
2023-02-16T22:36:48.010Z,100632.38
2023-02-16T22:39:17.342Z,100634.67
2023-02-16T22:41:45.375Z,100634.39
2023-02-16T22:44:15.061Z,100633.55
2023-02-16T22:46:43.516Z,100632.02
2023-02-16T22:49:11.713Z,100627.84
2023-02-16T22:51:40.261Z,100629.30
2023-02-16T22:54:08.654Z,100630.08
2023-02-16T22:56:36.652Z,100629.46
2023-02-16T22:59:04.671Z,100629.33
2023-02-16T23:01:33.062Z,100626.34
2023-02-16T23:04:01.920Z,100627.39
2023-02-16T23:06:34.240Z,100624.64
2023-02-16T23:09:06.046Z,100622.52
2023-02-16T23:11:35.184Z,100627.39
2023-02-16T23:14:05.196Z,100629.36
2023-02-16T23:16:33.355Z,100627.90
2023-02-16T23:19:01.321Z,100628.34
2023-02-16T23:21:33.156Z,100628.73
2023-02-16T23:24:01.262Z,100634.63
2023-02-16T23:26:31.123Z,100633.63
2023-02-16T23:29:02.207Z,100631.61
2023-02-16T23:31:38.814Z,100635.09
2023-02-16T23:34:07.569Z,100628.27
2023-02-16T23:36:37.329Z,100629.41
2023-02-16T23:39:15.236Z,100627.24
2023-02-16T23:41:43.549Z,100624.42
2023-02-16T23:44:13.790Z,100623.79
2023-02-16T23:46:41.921Z,100624.69
2023-02-16T23:49:10.197Z,100620.08
2023-02-16T23:51:38.224Z,100623.01
2023-02-16T23:54:06.669Z,100624.23
2023-02-16T23:56:35.448Z,100628.86
2023-02-16T23:59:03.513Z,100625.00
